Data for 02/17/2015

Time Sea-Level Adjusted Pressure Absolute Pressure Temperature Relative Humidity Dew Point   
(mb) (inHg) (mb) (inHg) (C) (F) (%) (C) (F)
00:05 1025 30.27 854 25.22 -3 26.6 61 -9.5 14.9
00:10 1025 30.27 854 25.22 -3 26.7 61 -9.5 14.8
00:15 1025 30.27 854 25.22 -3 26.6 61 -9.6 14.8
00:20 1025 30.27 854 25.22 -3.1 26.4 62 -9.4 15
00:25 1025 30.27 854 25.22 -3.2 26.3 60 -9.8 14.3
00:30 1025 30.27 854 25.22 -3.1 26.3 60 -9.8 14.4
00:35 1025 30.27 854 25.22 -3.1 26.3 61 -9.7 14.6
00:40 1025 30.27 854 25.22 -3.2 26.3 61 -9.7 14.6
00:45 1025 30.27 854 25.22 -3.2 26.3 61 -9.6 14.8
00:50 1025 30.27 854 25.22 -3.2 26.2 63 -9.2 15.4
00:55 1025 30.27 854 25.22 -3.2 26.3 64 -9.1 15.6
01:00 1025 30.27 854 25.22 -3.2 26.3 64 -8.9 15.9
01:05 1025 30.27 854 25.22 -3.1 26.4 65 -8.8 16.2
01:10 1025 30.27 854 25.22 -3.1 26.3 65 -8.8 16.2
01:15 1025 30.27 854 25.22 -3.2 26.2 64 -9.1 15.6
01:20 1025 30.27 854 25.22 -3.2 26.3 64 -9.1 15.6
01:25 1025 30.27 854 25.22 -3.1 26.4 64 -9 15.7
01:30 1025 30.27 854 25.22 -3.1 26.4 63 -9.3 15.3
01:35 1025 30.27 854 25.22 -3.1 26.3 63 -9.2 15.5
01:40 1025 30.27 854 25.22 -3.2 26.3 64 -9.1 15.6
01:45 1025 30.27 854 25.22 -3.1 26.4 61 -9.6 14.7
01:50 1025 30.27 854 25.22 -3 26.5 62 -9.3 15.3
01:55 1025 30.27 854 25.22 -3.1 26.5 61 -9.5 14.9
02:00 1025 30.27 854 25.22 -3.1 26.4 62 -9.5 14.9
02:05 1025 30.27 854 25.22 -3.1 26.3 61 -9.7 14.5
02:10 1025 30.27 854 25.22 -3.1 26.4 60 -9.7 14.5
02:15 1024 30.24 854 25.22 -3.1 26.5 63 -9.2 15.4
02:20 1024 30.24 854 25.22 -3 26.6 65 -8.7 16.4
02:25 1024 30.24 854 25.22 -3.2 26.2 66 -8.7 16.4
02:30 1024 30.24 854 25.22 -3.3 26.1 66 -8.8 16.2
02:35 1024 30.24 853 25.19 -3.4 25.9 66 -8.8 16.1
02:40 1024 30.24 853 25.19 -3.4 25.9 66 -8.8 16.2
02:45 1024 30.24 853 25.19 -3.5 25.8 66 -8.9 16
02:50 1024 30.24 853 25.19 -3.4 25.8 67 -8.6 16.5
02:55 1024 30.24 853 25.19 -3.4 25.8 67 -8.7 16.4
03:00 1024 30.24 853 25.19 -3.5 25.8 69 -8.3 17.1
03:05 1024 30.24 853 25.19 -3.6 25.5 70 -8.2 17.2
03:10 1024 30.24 853 25.19 -3.7 25.4 66 -9.1 15.7
03:15 1024 30.24 853 25.19 -3.5 25.6 64 -9.4 15.1
03:20 1024 30.24 853 25.19 -3.5 25.7 64 -9.3 15.2
03:25 1024 30.24 853 25.19 -3.6 25.5 64 -9.4 15
03:30 1024 30.24 853 25.19 -3.7 25.4 64 -9.6 14.8
03:35 1024 30.24 853 25.19 -3.7 25.4 64 -9.4 15
03:40 1024 30.24 853 25.19 -3.6 25.4 63 -9.6 14.7
03:45 1024 30.24 853 25.19 -3.6 25.5 63 -9.8 14.4
03:50 1024 30.24 853 25.19 -3.6 25.5 62 -9.8 14.4
03:55 1024 30.24 853 25.19 -3.6 25.6 62 -9.8 14.3
04:00 1024 30.24 853 25.19 -3.6 25.6 63 -9.7 14.6
04:05 1024 30.24 853 25.19 -3.6 25.6 63 -9.5 14.8
04:10 1024 30.24 853 25.19 -3.6 25.4 66 -9.2 15.4
04:15 1024 30.24 853 25.19 -3.8 25.1 67 -9.1 15.7
04:20 1024 30.24 853 25.19 -3.9 24.9 68 -9 15.9
04:25 1024 30.24 853 25.19 -4.1 24.7 70 -8.8 16.2
04:30 1024 30.24 853 25.19 -4.1 24.6 70 -8.9 16.1
04:35 1024 30.24 853 25.19 -4.2 24.5 70 -8.9 15.9
04:40 1024 30.24 853 25.19 -4.3 24.3 72 -8.6 16.5
04:45 1024 30.24 853 25.19 -4.4 24 72 -8.8 16.2
04:50 1024 30.24 853 25.19 -4.4 24.1 70 -9.1 15.6
04:55 1024 30.24 853 25.19 -4.3 24.3 70 -9 15.8
05:00 1024 30.24 853 25.19 -4.3 24.2 71 -8.9 16
05:05 1024 30.24 853 25.19 -4.4 24.1 71 -8.9 16.1
05:10 1024 30.24 853 25.19 -4.5 24 72 -8.9 16
05:15 1024 30.24 853 25.19 -4.5 23.9 71 -9 15.8
05:20 1024 30.24 853 25.19 -4.4 24 70 -9.2 15.5
05:25 1024 30.24 853 25.19 -4.4 24.1 69 -9.2 15.5
05:30 1024 30.24 853 25.19 -4.4 24.1 71 -8.8 16.1
05:35 1024 30.24 853 25.19 -4.5 23.9 72 -8.7 16.3
05:40 1024 30.24 853 25.19 -4.6 23.8 73 -8.7 16.3
05:45 1024 30.24 853 25.19 -4.7 23.6 74 -8.7 16.4
05:50 1024 30.24 853 25.19 -4.8 23.3 75 -8.5 16.7
05:55 1024 30.24 853 25.19 -5 23 77 -8.4 16.8
06:00 1024 30.24 853 25.19 -5.3 22.4 77 -8.7 16.4
06:05 1024 30.24 853 25.19 -5.5 22.1 77 -8.9 16
06:10 1024 30.24 853 25.19 -5.6 21.9 77 -9 15.9
06:15 1024 30.24 853 25.19 -5.6 21.8 76 -9.2 15.5
06:20 1024 30.24 853 25.19 -5.6 21.8 76 -9.2 15.5
06:25 1024 30.24 853 25.19 -5.5 22.1 75 -9.3 15.2
06:30 1024 30.24 853 25.19 -5.5 22 75 -9.3 15.2
06:35 1024 30.24 853 25.19 -5.4 22.3 75 -9.1 15.6
06:40 1024 30.24 853 25.19 -5.3 22.4 76 -8.9 15.9
06:45 1024 30.24 853 25.19 -5.3 22.5 76 -8.9 16
06:50 1024 30.24 853 25.19 -5.3 22.5 75 -9 15.8
06:55 1024 30.24 853 25.19 -5.2 22.6 77 -8.7 16.3
07:00 1024 30.24 853 25.19 -5.2 22.6 75 -9.1 15.7
07:05 1024 30.24 853 25.19 -5.2 22.6 75 -9 15.7
07:10 1024 30.24 853 25.19 -5.3 22.4 76 -9 15.8
07:15 1024 30.24 853 25.19 -5.5 22.1 76 -9.1 15.7
07:20 1024 30.24 853 25.19 -5.7 21.8 77 -9.1 15.6
07:25 1024 30.24 853 25.19 -5.7 21.7 77 -9.1 15.6
07:30 1024 30.24 853 25.19 -5.5 22 76 -9.1 15.6
07:35 1024 30.24 853 25.19 -5.5 22.1 75 -9.2 15.4
07:40 1024 30.24 853 25.19 -5.4 22.3 75 -9.2 15.5
07:45 1024 30.24 853 25.19 -5.4 22.3 75 -9.1 15.6
07:50 1024 30.24 853 25.19 -5.5 22 76 -9.2 15.4
07:55 1024 30.24 853 25.19 -5.5 22.1 75 -9.3 15.2
08:00 1024 30.24 853 25.19 -5.5 22.2 75 -9.3 15.3
08:05 1024 30.24 853 25.19 -5.4 22.3 74 -9.3 15.3
08:10 1024 30.24 853 25.19 -5.5 22.2 75 -9.2 15.4
08:15 1024 30.24 853 25.19 -5.3 22.5 74 -9.1 15.5
08:20 1024 30.24 853 25.19 -5.5 22 76 -9.1 15.6
08:25 1024 30.24 853 25.19 -5.6 21.9 75 -9.3 15.3
08:30 1024 30.24 853 25.19 -5.6 21.9 75 -9.3 15.3
08:35 1024 30.24 853 25.19 -5.6 22 74 -9.4 15
08:40 1024 30.24 853 25.19 -5.5 22 74 -9.5 14.9
08:45 1024 30.24 853 25.19 -5.6 21.9 73 -9.7 14.5
08:50 1024 30.24 853 25.19 -5.9 21.4 74 -9.8 14.4
08:55 1024 30.24 853 25.19 -5.9 21.3 74 -9.8 14.3
09:00 1024 30.24 853 25.19 -5.9 21.4 74 -9.8 14.4
09:05 1024 30.24 853 25.19 -5.4 22.2 71 -9.8 14.3
09:10 1024 30.24 853 25.19 -5.2 22.6 71 -9.7 14.5
09:15 1024 30.24 853 25.19 -5.1 22.9 71 -9.5 14.8
09:20 1024 30.24 853 25.19 -4.7 23.6 68 -9.8 14.4
09:25 1024 30.24 853 25.19 -4.6 23.7 68 -9.7 14.6
09:30 1024 30.24 853 25.19 -4.9 23.2 69 -9.8 14.4
09:35 1024 30.24 853 25.19 -5.4 22.2 70 -10 14
09:40 1024 30.24 853 25.19 -5.5 22.1 70 -10.2 13.7
09:45 1024 30.24 853 25.19 -5.1 22.8 67 -10.2 13.6
09:50 1024 30.24 853 25.19 -4.7 23.6 66 -10 14
09:55 1024 30.24 853 25.19 -4.9 23.2 66 -10.3 13.5
10:00 1024 30.24 853 25.19 -4.8 23.3 64 -10.5 13
10:05 1024 30.24 853 25.19 -4.1 24.6 63 -10.2 13.7
10:10 1024 30.24 853 25.19 -3.6 25.6 62 -9.9 14.1
10:15 1024 30.24 853 25.19 -3.4 25.9 61 -9.8 14.4
10:20 1024 30.24 853 25.19 -2.6 27.3 58 -9.8 14.3
10:25 1024 30.24 853 25.19 -2.1 28.3 56 -9.6 14.7
10:30 1024 30.24 853 25.19 -2.5 27.5 57 -9.9 14.1
10:35 1024 30.24 853 25.19 -2.3 27.9 57 -9.7 14.5
10:40 1024 30.24 853 25.19 -2 28.3 54 -10.1 13.9
10:45 1024 30.24 853 25.19 -1.9 28.5 55 -9.9 14.2
10:50 1024 30.24 853 25.19 -1.6 29.1 53 -10.1 13.9
10:55 1024 30.24 853 25.19 -1.6 29.2 55 -9.6 14.8
11:00 1024 30.24 853 25.19 -1.5 29.3 55 -9.5 14.9
11:05 1024 30.24 853 25.19 -1.9 28.6 55 -9.8 14.3
11:10 1024 30.24 853 25.19 -1.9 28.5 54 -10.1 13.8
11:15 1024 30.24 853 25.19 -1.6 29.2 53 -10 13.9
11:20 1023 30.21 853 25.19 -1.4 29.5 53 -9.8 14.4
11:25 1023 30.21 853 25.19 -0.9 30.3 51 -9.8 14.3
11:30 1023 30.21 852 25.16 -1.1 30.1 51 -9.8 14.3
11:35 1023 30.21 852 25.16 -0.9 30.3 51 -9.9 14.2
11:40 1023 30.21 852 25.16 -0.6 30.8 50 -9.9 14.2
11:45 1023 30.21 852 25.16 0.5 32.9 47 -9.6 14.7
11:50 1023 30.21 852 25.16 0.9 33.6 45 -9.9 14.3
11:55 1023 30.21 853 25.19 1.2 34.1 44 -9.8 14.4
12:00 1023 30.21 853 25.19 1 33.8 45 -9.7 14.6
12:05 1023 30.21 852 25.16 1.1 34.1 42 -10.3 13.4
12:10 1023 30.21 852 25.16 1.5 34.7 43 -9.9 14.2
12:15 1023 30.21 852 25.16 1.2 34.2 42 -10.4 13.3
12:20 1023 30.21 852 25.16 1.8 35.2 40 -10.4 13.3
12:25 1023 30.21 852 25.16 2.2 36 39 -10.4 13.2
12:30 1023 30.21 852 25.16 2.3 36.1 39 -10.4 13.2
12:35 1023 30.21 852 25.16 2.3 36.2 38 -10.4 13.2
12:40 1023 30.21 852 25.16 2.7 36.8 36 -10.9 12.4
12:45 1023 30.21 852 25.16 2.7 36.8 38 -10.4 13.2
12:50 1023 30.21 852 25.16 2.7 36.9 36 -10.8 12.6
12:55 1023 30.21 852 25.16 2.7 36.9 35 -11.3 11.7
13:00 1023 30.21 852 25.16 3 37.3 34 -11.3 11.6
13:05 1023 30.21 852 25.16 2.6 36.7 34 -11.6 11.2
13:10 1023 30.21 852 25.16 2.3 36.2 35 -11.8 10.8
13:15 1023 30.21 852 25.16 2.8 37.1 32 -12.1 10.2
13:20 1023 30.21 852 25.16 3 37.3 34 -11.3 11.6
13:25 1023 30.21 852 25.16 2.8 37 34 -11.7 10.9
13:30 1023 30.21 852 25.16 3.2 37.7 33 -11.5 11.2
13:35 1023 30.21 852 25.16 4 39.1 31 -11.7 11
13:40 1023 30.21 852 25.16 3.2 37.8 35 -10.9 12.4
13:45 1023 30.21 852 25.16 2.4 36.3 32 -12.7 9.1
13:50 1022 30.18 852 25.16 3.5 38.3 31 -12.3 9.9
13:55 1022 30.18 851 25.13 3.4 38.1 31 -12.3 9.8
14:00 1022 30.18 851 25.13 3.8 38.9 30 -12.3 9.8
14:05 1022 30.18 851 25.13 3.6 38.5 31 -12.1 10.3
14:10 1022 30.18 851 25.13 4.2 39.6 30 -12.1 10.2
14:15 1022 30.18 851 25.13 4.3 39.7 28 -12.9 8.8
14:20 1022 30.18 851 25.13 4.2 39.6 27 -13.4 7.9
14:25 1022 30.18 851 25.13 4.4 40 28 -12.5 9.4
14:30 1022 30.18 851 25.13 4.6 40.2 28 -12.6 9.3
14:35 1022 30.18 851 25.13 4.2 39.6 28 -12.7 9.1
14:40 1022 30.18 851 25.13 4.5 40.1 27 -12.9 8.7
14:45 1021 30.15 851 25.13 4.6 40.4 27 -12.7 9.2
14:50 1021 30.15 851 25.13 4.1 39.4 27 -13.1 8.4
14:55 1021 30.15 851 25.13 3.4 38.2 29 -13.1 8.4
15:00 1021 30.15 851 25.13 3.3 37.9 29 -13 8.6
15:05 1021 30.15 851 25.13 3.6 38.6 28 -13.2 8.2
15:10 1021 30.15 850 25.1 3.3 38 29 -13 8.7
15:15 1021 30.15 850 25.1 3.5 38.2 28 -13.6 7.6
15:20 1021 30.15 850 25.1 4.1 39.4 26 -13.5 7.7
15:25 1021 30.15 850 25.1 4.3 39.8 26 -13.7 7.3
15:30 1021 30.15 850 25.1 4.3 39.7 26 -13.6 7.5
15:35 1021 30.15 850 25.1 5 41 25 -13.3 8.1
15:40 1021 30.15 850 25.1 5 41 25 -13.4 7.9
15:45 1021 30.15 850 25.1 4.4 39.9 25 -13.8 7.1
15:50 1021 30.15 850 25.1 4.4 40 24 -14.5 5.9
15:55 1021 30.15 850 25.1 4.8 40.6 23 -14.8 5.3
16:00 1021 30.15 850 25.1 5.1 41.1 22 -14.8 5.3
16:05 1021 30.15 850 25.1 5 41 21 -15.3 4.4
16:10 1021 30.15 850 25.1 4.4 40 23 -15.1 4.8
16:15 1021 30.15 850 25.1 5 41 23 -14.8 5.4
16:20 1021 30.15 850 25.1 5.2 41.4 22 -15 5
16:25 1020 30.12 850 25.1 4.9 40.9 23 -14.5 6
16:30 1021 30.15 850 25.1 5 41.1 21 -15.6 4
16:35 1020 30.12 850 25.1 5 41 20 -15.9 3.4
16:40 1021 30.15 850 25.1 5.2 41.3 21 -15.4 4.3
16:45 1020 30.12 850 25.1 5.3 41.6 21 -15.5 4
16:50 1020 30.12 850 25.1 5.5 41.8 20 -15.6 3.9
16:55 1020 30.12 850 25.1 5.7 42.2 20 -15.6 4
17:00 1020 30.12 850 25.1 5.8 42.5 20 -15.7 3.8
17:05 1020 30.12 849 25.07 5.8 42.5 19 -15.9 3.5
17:10 1020 30.12 849 25.07 5.8 42.4 20 -15.8 3.5
17:15 1020 30.12 849 25.07 5.5 41.9 21 -15.4 4.3
17:20 1020 30.12 849 25.07 5.4 41.7 21 -15.6 4
17:25 1020 30.12 849 25.07 5.5 41.8 20 -15.6 3.9
17:30 1020 30.12 849 25.07 5.5 41.8 20 -15.6 3.9
17:35 1020 30.12 849 25.07 5.6 42 20 -15.6 3.9
17:40 1020 30.12 849 25.07 5.6 42.1 21 -15.2 4.6
17:45 1020 30.12 849 25.07 5.7 42.2 20 -15.6 3.9
17:50 1020 30.12 849 25.07 5.3 41.6 21 -15.4 4.3
17:55 1020 30.12 849 25.07 5.6 42.1 20 -15.5 4.1
18:00 1020 30.12 849 25.07 5.5 41.9 20 -15.9 3.3
18:05 1020 30.12 849 25.07 5.2 41.3 21 -15.4 4.3
18:10 1020 30.12 849 25.07 4.8 40.6 22 -15.4 4.2
18:15 1019 30.09 849 25.07 5 41 21 -15.4 4.3
18:20 1019 30.09 849 25.07 5.2 41.3 22 -15.1 4.8
18:25 1020 30.12 849 25.07 4.9 40.8 21 -15.6 4
18:30 1020 30.12 849 25.07 4.5 40.1 22 -15.6 3.9
18:35 1020 30.12 849 25.07 4.5 40.1 22 -15.5 4.1
18:40 1019 30.09 849 25.07 4.5 40.1 22 -15.3 4.5
18:45 1019 30.09 849 25.07 4.4 39.8 23 -15.1 4.8
18:50 1019 30.09 849 25.07 3.9 39 23 -15.3 4.5
18:55 1019 30.09 849 25.07 3.5 38.3 25 -15 5
19:00 1019 30.09 849 25.07 3.4 38 24 -15.2 4.6
19:05 1020 30.12 849 25.07 3.3 37.9 25 -15.1 4.8
19:10 1020 30.12 849 25.07 3 37.4 29 -13.6 7.6
19:15 1020 30.12 849 25.07 2.6 36.7 30 -13.1 8.3
19:20 1020 30.12 849 25.07 1.8 35.3 33 -13 8.7
19:25 1019 30.09 849 25.07 1 33.9 36 -12.5 9.5
19:30 1019 30.09 849 25.07 0.8 33.5 37 -12.5 9.6
19:35 1020 30.12 849 25.07 0.9 33.7 37 -12.3 9.9
19:40 1020 30.12 849 25.07 0.9 33.7 37 -12.2 10
19:45 1020 30.12 849 25.07 1.1 34 37 -12.2 10.1
19:50 1020 30.12 849 25.07 1.1 34.1 36 -12.3 9.9
19:55 1020 30.12 849 25.07 1.1 34 40 -11.1 12
20:00 1020 30.12 849 25.07 1 33.7 39 -11.5 11.4
20:05 1020 30.12 849 25.07 0.8 33.5 42 -10.8 12.6
20:10 1020 30.12 849 25.07 0.6 33 43 -10.7 12.8
20:15 1020 30.12 849 25.07 0.6 33.1 38 -12 10.3
20:20 1020 30.12 849 25.07 0.7 33.2 41 -11.3 11.7
20:25 1020 30.12 849 25.07 0.8 33.5 38 -11.8 10.7
20:30 1020 30.12 849 25.07 1.1 34.1 37 -12.1 10.2
20:35 1020 30.12 849 25.07 1.4 34.5 36 -12 10.3
20:40 1020 30.12 849 25.07 1.6 34.8 35 -12.3 9.9
20:45 1020 30.12 849 25.07 1.7 35 35 -12.2 10.1
20:50 1020 30.12 849 25.07 1.8 35.2 33 -12.7 9.1
20:55 1020 30.12 849 25.07 2 35.5 33 -12.7 9.1
21:00 1020 30.12 849 25.07 2.1 35.7 33 -12.8 9
21:05 1020 30.12 849 25.07 2.1 35.8 32 -12.9 8.8
21:10 1020 30.12 849 25.07 2.3 36.2 31 -13.2 8.2
21:15 1020 30.12 849 25.07 2.5 36.5 30 -13.5 7.6
21:20 1020 30.12 849 25.07 2.7 36.8 29 -13.5 7.6
21:25 1020 30.12 849 25.07 2.7 36.9 30 -13.3 8
21:30 1020 30.12 849 25.07 2.7 36.9 30 -13.2 8.3
21:35 1020 30.12 849 25.07 2.7 36.8 30 -13.1 8.4
21:40 1020 30.12 849 25.07 2.7 36.8 30 -13.1 8.3
21:45 1020 30.12 849 25.07 2.7 36.9 30 -13.3 8
21:50 1020 30.12 849 25.07 2.8 37 30 -13.2 8.3
21:55 1020 30.12 849 25.07 2.8 37 30 -13.3 8
22:00 1020 30.12 849 25.07 2.8 37 29 -13.4 7.9
22:05 1020 30.12 849 25.07 2.8 37 30 -13.3 8
22:10 1020 30.12 849 25.07 2.7 36.9 30 -13.1 8.3
22:15 1020 30.12 849 25.07 2.7 36.8 31 -12.9 8.7
22:20 1020 30.12 849 25.07 2.6 36.7 31 -13 8.6
22:25 1020 30.12 849 25.07 2.5 36.6 31 -13 8.7
22:30 1020 30.12 849 25.07 2.5 36.4 32 -12.6 9.4
22:35 1020 30.12 849 25.07 2.4 36.3 33 -12.5 9.5
22:40 1020 30.12 849 25.07 2.3 36.2 33 -12.6 9.4
22:45 1020 30.12 849 25.07 2.2 35.9 33 -12.6 9.3
22:50 1020 30.12 849 25.07 2.1 35.7 33 -12.5 9.5
22:55 1020 30.12 849 25.07 2.1 35.8 33 -12.5 9.5
23:00 1020 30.12 849 25.07 2.1 35.8 32 -13.1 8.5
23:05 1020 30.12 849 25.07 2.2 36 33 -12.6 9.3
23:10 1020 30.12 849 25.07 2.4 36.3 30 -13.5 7.8
23:15 1020 30.12 849 25.07 2.5 36.5 31 -13.1 8.4
23:20 1020 30.12 849 25.07 2.5 36.5 31 -13 8.6
23:25 1020 30.12 850 25.1 2.5 36.5 31 -12.9 8.8
23:30 1020 30.12 849 25.07 2.5 36.4 31 -13.2 8.2
23:35 1020 30.12 850 25.1 2.5 36.5 30 -13.4 7.8
23:40 1020 30.12 850 25.1 2.5 36.5 31 -13 8.7
23:45 1020 30.12 850 25.1 2.5 36.4 32 -12.8 8.9
23:50 1020 30.12 850 25.1 2.4 36.3 31 -12.9 8.7
23:55 1020 30.12 850 25.1 2.3 36.2 31 -13.4 7.9
24:00 1020 30.12 850 25.1 2.3 36.2 34 -12.1 10.2